createdAt,value
2018-09-06T00:00:28.417Z,75.82
2018-09-06T00:01:31.244Z,74.72
2018-09-06T00:02:34.127Z,74.90
2018-09-06T00:03:37.221Z,74.65
2018-09-06T00:04:40.004Z,74.02
2018-09-06T00:05:42.889Z,73.73
2018-09-06T00:06:45.717Z,74.64
2018-09-06T00:07:48.568Z,73.84
2018-09-06T00:08:51.353Z,73.80
2018-09-06T00:09:54.476Z,74.47
2018-09-06T00:10:57.355Z,74.78
2018-09-06T00:12:00.126Z,74.07
2018-09-06T00:13:02.907Z,73.99
2018-09-06T00:14:05.692Z,73.97
2018-09-06T00:15:08.434Z,74.35
2018-09-06T00:16:11.702Z,73.80
2018-09-06T00:17:14.485Z,73.47
2018-09-06T00:18:17.268Z,73.53
2018-09-06T00:19:20.063Z,74.07
2018-09-06T00:20:22.833Z,73.21
2018-09-06T00:21:25.620Z,73.20
2018-09-06T00:22:28.721Z,73.85
2018-09-06T00:23:31.469Z,75.12
2018-09-06T00:24:34.248Z,74.95
2018-09-06T00:25:37.657Z,75.40
2018-09-06T00:26:40.459Z,75.23
2018-09-06T00:27:43.233Z,74.31
2018-09-06T00:28:46.410Z,74.50
2018-09-06T00:29:49.165Z,74.29
2018-09-06T00:30:51.941Z,75.59
2018-09-06T00:31:54.700Z,76.29
2018-09-06T00:32:57.496Z,76.73
2018-09-06T00:34:00.262Z,76.73
2018-09-06T00:35:03.485Z,77.68
2018-09-06T00:36:06.291Z,77.24
2018-09-06T00:37:09.115Z,76.13
2018-09-06T00:38:11.894Z,75.62
2018-09-06T00:39:14.701Z,75.51
2018-09-06T00:40:17.494Z,74.82
2018-09-06T00:41:21.278Z,74.78
2018-09-06T00:42:24.230Z,74.96
2018-09-06T00:43:27.011Z,74.33
2018-09-06T00:44:29.814Z,75.26
2018-09-06T00:45:32.584Z,75.35
2018-09-06T00:46:35.340Z,74.99
2018-09-06T00:47:38.603Z,75.61
2018-09-06T00:48:41.368Z,75.61
2018-09-06T00:49:44.131Z,75.00
2018-09-06T00:50:46.903Z,74.77
2018-09-06T00:51:49.747Z,75.18
2018-09-06T00:52:53.370Z,75.20
2018-09-06T00:53:56.833Z,75.24
2018-09-06T00:54:59.596Z,74.98
2018-09-06T00:56:02.410Z,75.00
2018-09-06T00:57:05.227Z,75.25
2018-09-06T00:58:08.014Z,74.98
2018-09-06T00:59:10.801Z,73.96
2018-09-06T01:00:14.191Z,73.85
2018-09-06T01:01:16.956Z,74.67
2018-09-06T01:02:19.797Z,73.77
2018-09-06T01:03:22.584Z,73.74
2018-09-06T01:04:25.349Z,74.20
2018-09-06T01:05:28.129Z,73.13
2018-09-06T01:06:31.333Z,74.00
2018-09-06T01:07:34.136Z,73.05
2018-09-06T01:08:36.911Z,74.34
2018-09-06T01:09:39.677Z,74.62
2018-09-06T01:10:42.508Z,74.46
2018-09-06T01:11:45.636Z,74.66
2018-09-06T01:12:48.723Z,74.27
2018-09-06T01:13:51.513Z,74.17
2018-09-06T01:14:54.320Z,74.19
2018-09-06T01:15:57.117Z,74.36
2018-09-06T01:16:59.898Z,73.81
2018-09-06T01:18:02.756Z,73.61
2018-09-06T01:19:05.937Z,74.01
2018-09-06T01:20:08.770Z,74.20
2018-09-06T01:21:11.609Z,75.17
2018-09-06T01:22:14.358Z,74.63
2018-09-06T01:23:17.315Z,74.63
2018-09-06T01:24:20.101Z,74.47
2018-09-06T01:25:23.176Z,74.94
2018-09-06T01:26:25.968Z,74.09
2018-09-06T01:27:28.772Z,74.77
2018-09-06T01:28:31.533Z,74.56
2018-09-06T01:29:34.284Z,75.03
2018-09-06T01:30:37.100Z,75.19
2018-09-06T01:31:40.163Z,74.74
2018-09-06T01:32:42.969Z,75.77
2018-09-06T01:33:45.758Z,76.97
2018-09-06T01:34:48.576Z,76.73
2018-09-06T01:35:56.333Z,77.24
2018-09-06T01:36:59.128Z,76.33
2018-09-06T01:38:02.254Z,76.11
2018-09-06T01:39:05.771Z,76.29
2018-09-06T01:40:09.732Z,75.39
2018-09-06T01:41:12.530Z,75.58
2018-09-06T01:42:15.349Z,76.57
2018-09-06T01:43:18.154Z,75.90
2018-09-06T01:44:21.423Z,76.28
2018-09-06T01:45:24.699Z,76.00
2018-09-06T01:46:27.445Z,76.37
2018-09-06T01:47:30.234Z,76.76
2018-09-06T01:48:32.987Z,77.74
2018-09-06T01:49:35.767Z,77.87
2018-09-06T01:50:38.838Z,77.31
2018-09-06T01:51:41.624Z,77.74
2018-09-06T01:52:44.390Z,77.99
2018-09-06T01:53:47.167Z,77.39
2018-09-06T01:54:50.186Z,77.51
2018-09-06T01:55:53.044Z,78.27
2018-09-06T01:56:56.243Z,77.63
2018-09-06T01:57:59.419Z,77.80
2018-09-06T01:59:03.219Z,78.13
2018-09-06T02:00:06.008Z,78.58
2018-09-06T02:01:08.790Z,77.79
2018-09-06T02:02:11.563Z,77.51
2018-09-06T02:03:14.657Z,77.43
2018-09-06T02:04:17.452Z,77.57
2018-09-06T02:05:25.116Z,78.04
2018-09-06T02:06:27.897Z,77.78
2018-09-06T02:07:30.807Z,78.00
2018-09-06T02:08:33.804Z,77.72
2018-09-06T02:09:37.591Z,77.89
2018-09-06T02:10:40.351Z,77.32
2018-09-06T02:11:43.204Z,77.94
2018-09-06T02:12:46.268Z,77.92
2018-09-06T02:13:49.307Z,77.37
2018-09-06T02:14:52.080Z,76.86
2018-09-06T02:15:55.285Z,77.31
2018-09-06T02:16:58.150Z,77.16
2018-09-06T02:18:00.969Z,77.10
2018-09-06T02:19:03.799Z,76.49
2018-09-06T02:20:06.655Z,77.09
2018-09-06T02:21:09.446Z,76.25
2018-09-06T02:22:12.707Z,77.45
2018-09-06T02:23:15.502Z,76.91
2018-09-06T02:24:18.360Z,76.95
2018-09-06T02:25:21.212Z,76.65
2018-09-06T02:26:24.090Z,76.23
2018-09-06T02:27:26.934Z,75.89
2018-09-06T02:28:30.178Z,76.43
2018-09-06T02:29:32.975Z,76.54
2018-09-06T02:30:35.767Z,76.03
2018-09-06T02:31:38.552Z,76.54
2018-09-06T02:32:41.353Z,75.90
2018-09-06T02:33:44.158Z,76.01
2018-09-06T02:34:47.392Z,77.51
2018-09-06T02:35:50.192Z,77.00
2018-09-06T02:36:53.006Z,76.88
2018-09-06T02:37:55.802Z,78.06
2018-09-06T02:38:59.448Z,78.36
2018-09-06T02:40:02.437Z,78.84
2018-09-06T02:41:05.702Z,78.41
2018-09-06T02:42:08.505Z,77.83
2018-09-06T02:43:12.663Z,78.00
2018-09-06T02:44:15.650Z,78.83
2018-09-06T02:45:18.444Z,79.33
2018-09-06T02:46:21.245Z,79.31
2018-09-06T02:47:24.863Z,79.41
2018-09-06T02:48:32.672Z,79.33
2018-09-06T02:49:40.498Z,78.83
2018-09-06T02:50:48.285Z,79.00
2018-09-06T02:51:51.088Z,79.13
2018-09-06T02:52:54.415Z,78.80
2018-09-06T02:53:57.610Z,78.12
2018-09-06T02:55:00.382Z,78.19
2018-09-06T02:56:03.618Z,78.78
2018-09-06T02:57:06.467Z,79.36
2018-09-06T02:58:09.378Z,78.62
2018-09-06T02:59:12.220Z,79.46
2018-09-06T03:00:15.485Z,79.53
2018-09-06T03:01:18.276Z,80.29
2018-09-06T03:02:21.091Z,80.76
2018-09-06T03:03:23.896Z,80.59
2018-09-06T03:04:26.674Z,80.23
2018-09-06T03:05:30.441Z,80.51
2018-09-06T03:06:33.678Z,80.70
2018-09-06T03:07:36.576Z,80.21
2018-09-06T03:08:39.422Z,80.84
2018-09-06T03:09:42.828Z,81.04
2018-09-06T03:10:47.286Z,81.19
2018-09-06T03:11:52.363Z,80.66
2018-09-06T03:12:55.964Z,80.07
2018-09-06T03:13:59.389Z,80.11
2018-09-06T03:15:02.586Z,80.48
2018-09-06T03:16:05.410Z,79.65
2018-09-06T03:17:08.175Z,79.58
2018-09-06T03:18:11.227Z,79.34
2018-09-06T03:19:14.912Z,79.24
2018-09-06T03:20:17.767Z,78.87
2018-09-06T03:21:20.713Z,79.31
2018-09-06T03:22:23.595Z,79.18
2018-09-06T03:23:26.899Z,78.45
2018-09-06T03:24:30.141Z,78.99
2018-09-06T03:25:33.382Z,78.97
2018-09-06T03:26:36.185Z,79.09
2018-09-06T03:27:39.086Z,78.77
2018-09-06T03:28:41.902Z,79.09
2018-09-06T03:29:44.680Z,79.12
2018-09-06T03:30:47.465Z,79.32
2018-09-06T03:31:50.663Z,79.27
2018-09-06T03:32:53.401Z,79.02
2018-09-06T03:33:56.202Z,79.03
2018-09-06T03:34:58.967Z,78.75
2018-09-06T03:36:01.771Z,78.83
2018-09-06T03:37:04.600Z,79.15
2018-09-06T03:38:07.925Z,78.98
2018-09-06T03:39:11.062Z,79.39
2018-09-06T03:40:13.849Z,79.23
2018-09-06T03:41:16.648Z,79.63
2018-09-06T03:42:19.521Z,79.34
2018-09-06T03:43:22.358Z,79.57
2018-09-06T03:44:25.511Z,79.67
2018-09-06T03:45:28.287Z,78.39
2018-09-06T03:46:31.180Z,79.35
2018-09-06T03:47:33.954Z,78.81
2018-09-06T03:48:36.776Z,78.67
2018-09-06T03:49:39.597Z,78.92
2018-09-06T03:50:42.734Z,79.02
2018-09-06T03:51:45.546Z,78.51
2018-09-06T03:52:48.311Z,80.51
2018-09-06T03:53:51.109Z,80.66
2018-09-06T03:54:53.889Z,80.80
2018-09-06T03:55:56.671Z,79.57
2018-09-06T03:56:59.771Z,79.52
2018-09-06T03:58:02.730Z,79.98
2018-09-06T03:59:05.532Z,80.03
2018-09-06T04:00:08.335Z,80.20
2018-09-06T04:01:11.169Z,79.47
2018-09-06T04:02:13.937Z,79.60
2018-09-06T04:03:17.541Z,79.51
2018-09-06T04:04:20.410Z,80.75
2018-09-06T04:05:23.336Z,81.40
2018-09-06T04:06:26.129Z,81.90
2018-09-06T04:07:28.931Z,82.73
2018-09-06T04:08:31.728Z,83.82
2018-09-06T04:09:36.102Z,84.50
2018-09-06T04:10:38.893Z,84.46
2018-09-06T04:11:41.879Z,85.13
2018-09-06T04:12:45.515Z,85.94
2018-09-06T04:13:48.365Z,85.95
2018-09-06T04:14:51.154Z,86.00
2018-09-06T04:15:54.335Z,86.35
2018-09-06T04:16:57.142Z,87.14
2018-09-06T04:17:59.899Z,88.13
2018-09-06T04:19:02.694Z,88.14
2018-09-06T04:20:05.573Z,86.71
2018-09-06T04:21:08.397Z,86.07
2018-09-06T04:22:11.582Z,85.71
2018-09-06T04:23:14.443Z,86.00
2018-09-06T04:24:17.256Z,86.05
2018-09-06T04:25:20.314Z,84.81
2018-09-06T04:26:23.105Z,84.35
2018-09-06T04:27:25.930Z,85.92
2018-09-06T04:28:29.063Z,86.24
2018-09-06T04:29:31.866Z,85.77
2018-09-06T04:30:34.663Z,85.83
2018-09-06T04:31:38.158Z,85.51
2018-09-06T04:32:40.970Z,86.21
2018-09-06T04:33:43.902Z,85.46
2018-09-06T04:34:47.130Z,85.18
2018-09-06T04:35:49.914Z,85.53
2018-09-06T04:36:52.734Z,85.00
2018-09-06T04:37:55.559Z,85.27
2018-09-06T04:38:58.340Z,85.16
2018-09-06T04:40:01.165Z,85.23
2018-09-06T04:41:04.634Z,84.29
2018-09-06T04:42:07.463Z,84.63
2018-09-06T04:43:10.263Z,85.32
2018-09-06T04:44:13.218Z,86.24
2018-09-06T04:45:16.006Z,85.83
2018-09-06T04:46:18.815Z,86.22
2018-09-06T04:47:22.003Z,86.35
2018-09-06T04:48:24.921Z,85.75
2018-09-06T04:49:27.760Z,86.35
2018-09-06T04:50:30.590Z,85.50
2018-09-06T04:51:33.410Z,85.63
2018-09-06T04:52:36.197Z,85.73
2018-09-06T04:53:39.412Z,85.43
2018-09-06T04:54:42.247Z,84.94
2018-09-06T04:55:45.046Z,85.38
2018-09-06T04:56:47.843Z,85.56
2018-09-06T04:57:50.633Z,85.68
2018-09-06T04:58:53.466Z,85.25
2018-09-06T04:59:56.698Z,84.82
2018-09-06T05:00:59.829Z,85.60
2018-09-06T05:02:02.691Z,85.73
2018-09-06T05:03:05.774Z,85.08
2018-09-06T05:04:10.427Z,85.89
2018-09-06T05:05:13.212Z,85.58
2018-09-06T05:06:16.496Z,85.01
2018-09-06T05:07:19.575Z,85.77
2018-09-06T05:08:23.188Z,85.19
2018-09-06T05:09:27.704Z,85.16
2018-09-06T05:10:30.750Z,85.85
2018-09-06T05:11:33.687Z,85.07
2018-09-06T05:12:36.907Z,85.09
2018-09-06T05:13:40.347Z,84.27
2018-09-06T05:14:43.168Z,84.77
2018-09-06T05:15:45.996Z,83.79
2018-09-06T05:16:48.810Z,83.33
2018-09-06T05:17:51.616Z,83.61
2018-09-06T05:18:54.797Z,83.91
2018-09-06T05:19:57.625Z,82.88
2018-09-06T05:21:00.482Z,83.18
2018-09-06T05:22:03.433Z,82.76
2018-09-06T05:23:06.672Z,83.45
2018-09-06T05:24:09.514Z,83.18
2018-09-06T05:25:12.862Z,83.00
2018-09-06T05:26:16.000Z,82.99
2018-09-06T05:27:18.793Z,82.05
2018-09-06T05:28:21.618Z,82.75
2018-09-06T05:29:24.472Z,81.70
2018-09-06T05:30:27.245Z,82.97
2018-09-06T05:34:25.825Z,82.30
2018-09-06T05:35:28.635Z,82.73
2018-09-06T05:36:31.931Z,81.92
2018-09-06T05:37:34.765Z,82.21
2018-09-06T05:38:38.508Z,82.01
2018-09-06T05:39:41.833Z,82.00
2018-09-06T05:40:45.632Z,81.07
2018-09-06T05:41:50.102Z,81.50
2018-09-06T05:42:53.422Z,82.36
2018-09-06T05:43:56.194Z,81.86
2018-09-06T05:44:59.052Z,81.92
2018-09-06T05:46:02.318Z,82.02
2018-09-06T05:47:06.527Z,81.22
2018-09-06T05:48:09.978Z,81.42
2018-09-06T05:49:12.866Z,82.09
2018-09-06T05:50:15.697Z,81.28
2018-09-06T05:51:18.853Z,81.31
2018-09-06T05:52:21.993Z,81.98
2018-09-06T05:53:24.851Z,81.25
2018-09-06T05:54:27.823Z,81.58
2018-09-06T05:55:30.610Z,80.68
2018-09-06T05:56:33.514Z,81.04
2018-09-06T05:57:36.303Z,81.34
2018-09-06T05:58:39.469Z,80.89
2018-09-06T05:59:42.308Z,80.66
2018-09-06T06:00:47.823Z,81.10
2018-09-06T06:01:50.638Z,81.37
2018-09-06T06:02:54.847Z,80.58
2018-09-06T06:03:59.495Z,80.54
2018-09-06T06:05:02.417Z,80.92
2018-09-06T06:06:05.339Z,81.45
2018-09-06T06:07:08.183Z,81.40
2018-09-06T06:08:11.048Z,81.51
2018-09-06T06:09:13.842Z,80.87
2018-09-06T06:10:17.011Z,79.66
2018-09-06T06:11:20.778Z,79.35
2018-09-06T06:12:23.650Z,78.30
2018-09-06T06:13:26.832Z,77.80
2018-09-06T06:14:30.900Z,77.23
2018-09-06T06:15:33.818Z,77.15
2018-09-06T06:16:37.878Z,76.86
2018-09-06T06:17:41.305Z,75.90
2018-09-06T06:18:44.176Z,75.37
2018-09-06T06:19:46.964Z,75.28
2018-09-06T06:20:49.840Z,74.43
2018-09-06T06:21:52.666Z,74.30
2018-09-06T06:22:56.087Z,74.91
2018-09-06T06:23:58.872Z,73.71
2018-09-06T06:25:01.727Z,74.30
2018-09-06T06:26:04.598Z,73.67
2018-09-06T06:27:07.442Z,72.68
2018-09-06T06:28:10.985Z,73.05
2018-09-06T06:29:14.239Z,72.83
2018-09-06T06:30:17.303Z,72.24
2018-09-06T06:31:20.114Z,72.11
2018-09-06T06:32:23.791Z,72.30
2018-09-06T06:33:27.204Z,71.70
2018-09-06T06:34:30.061Z,71.67
2018-09-06T06:35:33.299Z,70.45
2018-09-06T06:36:36.987Z,71.08
2018-09-06T06:37:39.921Z,70.04
2018-09-06T06:38:43.168Z,70.60
2018-09-06T06:39:46.392Z,69.61
2018-09-06T06:40:49.537Z,68.54
2018-09-06T06:41:53.019Z,69.09
2018-09-06T06:42:55.883Z,68.97
2018-09-06T06:43:58.667Z,69.03
2018-09-06T06:45:01.664Z,69.16
2018-09-06T06:46:04.441Z,69.38
2018-09-06T06:47:07.485Z,68.58
2018-09-06T06:48:10.736Z,67.79
2018-09-06T06:49:13.519Z,67.01
2018-09-06T06:50:16.494Z,67.23
2018-09-06T06:51:19.308Z,67.13
2018-09-06T06:52:22.126Z,67.24
2018-09-06T06:53:25.568Z,68.12
2018-09-06T06:54:28.834Z,68.77
2018-09-06T06:55:34.137Z,68.46
2018-09-06T06:56:36.938Z,67.90
2018-09-06T06:57:39.767Z,67.91
2018-09-06T06:58:42.731Z,69.14
2018-09-06T06:59:45.604Z,70.82
2018-09-06T07:00:48.739Z,71.00
2018-09-06T07:01:51.620Z,70.91
2018-09-06T07:02:54.509Z,70.86
2018-09-06T07:03:57.350Z,71.41
2018-09-06T07:05:00.159Z,71.91
2018-09-06T07:06:02.998Z,72.09
2018-09-06T07:07:06.296Z,73.15
2018-09-06T07:08:09.496Z,73.59
2018-09-06T07:09:12.708Z,74.08
2018-09-06T07:10:17.233Z,73.85
2018-09-06T07:11:20.072Z,74.26
2018-09-06T07:12:23.459Z,74.39
2018-09-06T07:13:27.684Z,73.74
2018-09-06T07:14:31.075Z,73.04
2018-09-06T07:15:34.434Z,73.24
2018-09-06T07:16:37.308Z,73.25
2018-09-06T07:17:40.159Z,72.47
2018-09-06T07:18:43.178Z,73.56
2018-09-06T07:19:46.193Z,73.10
2018-09-06T07:20:49.976Z,73.18
2018-09-06T07:21:52.910Z,72.43
2018-09-06T07:22:57.339Z,72.85
2018-09-06T07:24:00.170Z,72.65
2018-09-06T07:25:03.305Z,73.23
2018-09-06T07:26:08.419Z,73.06
2018-09-06T07:27:11.415Z,72.33
2018-09-06T07:28:15.920Z,73.18
2018-09-06T07:29:18.735Z,72.36
2018-09-06T07:30:21.539Z,72.34
2018-09-06T07:31:24.364Z,73.26
2018-09-06T07:32:27.627Z,72.48
2018-09-06T07:33:30.423Z,73.32
2018-09-06T07:34:33.251Z,72.56
2018-09-06T07:35:36.030Z,72.85
2018-09-06T07:36:38.840Z,72.04
2018-09-06T07:37:42.229Z,71.77
2018-09-06T07:38:45.882Z,71.09
2018-09-06T07:39:48.687Z,70.62
2018-09-06T07:40:51.596Z,70.30
2018-09-06T07:41:54.420Z,69.68
2018-09-06T07:42:57.959Z,69.14
2018-09-06T07:44:00.783Z,67.91
2018-09-06T07:45:04.767Z,68.89
2018-09-06T07:46:07.579Z,68.28
2018-09-06T07:47:13.758Z,68.71
2018-09-06T07:48:17.908Z,68.31
2018-09-06T07:49:20.686Z,67.78
2018-09-06T07:50:23.852Z,67.95
2018-09-06T07:51:27.549Z,67.79
2018-09-06T07:52:30.427Z,66.88
2018-09-06T07:53:33.269Z,66.83
2018-09-06T07:54:36.120Z,67.31
2018-09-06T07:55:38.906Z,67.67
2018-09-06T07:56:42.090Z,67.56
2018-09-06T07:57:45.250Z,67.71
2018-09-06T07:58:48.070Z,68.59
2018-09-06T07:59:51.333Z,68.03
2018-09-06T08:00:54.208Z,67.57
2018-09-06T08:01:57.052Z,67.79
2018-09-06T08:03:00.434Z,68.19
2018-09-06T08:04:03.453Z,67.83
2018-09-06T08:05:06.311Z,67.60
2018-09-06T08:06:09.118Z,67.94
2018-09-06T08:07:12.596Z,68.65
2018-09-06T08:08:15.480Z,68.66
2018-09-06T08:09:18.813Z,69.09
2018-09-06T08:10:22.539Z,68.81
2018-09-06T08:11:25.332Z,69.15
2018-09-06T08:12:29.782Z,69.08
2018-09-06T08:13:32.635Z,69.44
2018-09-06T08:14:35.435Z,69.36
2018-09-06T08:15:39.544Z,69.94
2018-09-06T08:16:42.483Z,69.54
2018-09-06T08:17:45.504Z,70.33
2018-09-06T08:18:48.353Z,69.95
2018-09-06T08:19:51.198Z,69.97
2018-09-06T08:20:55.135Z,70.13
2018-09-06T08:21:58.217Z,69.93
2018-09-06T08:23:01.276Z,70.06
2018-09-06T08:24:04.173Z,70.27
2018-09-06T08:25:07.555Z,70.03
2018-09-06T08:26:13.183Z,70.00
2018-09-06T08:27:17.301Z,69.80
2018-09-06T08:28:21.315Z,70.36
2018-09-06T08:29:24.118Z,69.43
2018-09-06T08:30:27.007Z,70.28
2018-09-06T08:31:30.593Z,70.00
2018-09-06T08:32:33.296Z,70.11
2018-09-06T08:33:36.514Z,70.42
2018-09-06T08:34:39.916Z,70.29
2018-09-06T08:35:42.744Z,71.20
2018-09-06T08:36:46.780Z,70.84
2018-09-06T08:37:49.770Z,70.48
2018-09-06T08:38:56.833Z,71.20
2018-09-06T08:40:03.799Z,71.15
2018-09-06T08:41:07.512Z,71.12
2018-09-06T08:42:10.806Z,70.71
2018-09-06T08:43:14.603Z,71.27
2018-09-06T08:44:17.491Z,70.44
2018-09-06T08:45:20.459Z,70.17
2018-09-06T08:46:23.327Z,71.15
2018-09-06T08:47:26.537Z,70.59
2018-09-06T08:48:31.023Z,71.16
2018-09-06T08:49:35.688Z,72.44
2018-09-06T08:50:38.601Z,73.27
2018-09-06T08:51:41.558Z,73.07
2018-09-06T08:52:45.200Z,74.69
2018-09-06T08:53:48.417Z,74.97
2018-09-06T08:54:52.783Z,75.50
2018-09-06T08:55:56.376Z,76.68
2018-09-06T08:56:59.763Z,77.07
2018-09-06T08:58:03.663Z,77.02
2018-09-06T08:59:06.571Z,77.58
2018-09-06T09:00:10.617Z,77.37
2018-09-06T09:01:18.457Z,77.73
2018-09-06T09:02:21.356Z,77.29
2018-09-06T09:03:25.331Z,77.45
2018-09-06T09:04:29.300Z,78.06
2018-09-06T09:05:32.115Z,77.61
2018-09-06T09:06:35.414Z,77.33
2018-09-06T09:07:38.760Z,77.11
2018-09-06T09:08:45.561Z,77.36
2018-09-06T09:09:48.847Z,78.36
2018-09-06T09:10:52.552Z,78.05
2018-09-06T09:11:56.318Z,78.34
2018-09-06T09:13:02.716Z,79.77
2018-09-06T09:14:05.644Z,80.93
2018-09-06T09:15:08.974Z,80.74
2018-09-06T09:16:12.583Z,81.15
2018-09-06T09:17:16.835Z,81.11
2018-09-06T09:18:19.917Z,81.36
2018-09-06T09:19:25.800Z,80.81
2018-09-06T09:20:29.263Z,81.89
2018-09-06T09:21:33.252Z,82.15
2018-09-06T09:22:37.836Z,82.63
2018-09-06T09:23:41.741Z,82.22
2018-09-06T09:24:45.320Z,81.53
2018-09-06T09:25:49.991Z,82.05
2018-09-06T09:26:52.942Z,82.38
2018-09-06T09:28:00.505Z,81.90
2018-09-06T09:29:03.740Z,82.66
2018-09-06T09:30:10.051Z,81.98
2018-09-06T09:31:13.485Z,82.90
2018-09-06T09:32:16.833Z,82.56
2018-09-06T09:33:20.667Z,83.32
2018-09-06T09:34:23.799Z,83.03
2018-09-06T09:35:26.857Z,83.62
2018-09-06T09:36:29.748Z,83.31
2018-09-06T09:37:32.641Z,83.05
2018-09-06T09:38:35.992Z,83.78
2018-09-06T09:39:38.926Z,83.36
2018-09-06T09:40:43.035Z,83.81
2018-09-06T09:41:46.597Z,84.61
2018-09-06T09:42:51.960Z,84.10
2018-09-06T09:43:55.601Z,85.01
2018-09-06T09:44:59.493Z,85.07
2018-09-06T09:48:10.642Z,85.80
2018-09-06T09:49:13.476Z,85.50
2018-09-06T09:51:19.283Z,85.39
2018-09-06T09:52:23.044Z,85.42
2018-09-06T09:53:26.506Z,86.25
2018-09-06T09:54:30.477Z,85.42
2018-09-06T09:55:33.440Z,86.35
2018-09-06T09:56:36.301Z,86.05
2018-09-06T09:57:39.433Z,85.96
2018-09-06T09:58:42.522Z,85.41
2018-09-06T09:59:45.325Z,86.23
2018-09-06T10:00:49.508Z,86.27
2018-09-06T10:06:14.588Z,86.24
2018-09-06T10:07:22.393Z,86.08
2018-09-06T10:08:31.376Z,85.40
2018-09-06T10:09:34.831Z,86.12
2018-09-06T10:10:37.843Z,85.19
2018-09-06T10:11:42.366Z,85.02
2018-09-06T10:12:45.490Z,85.86
2018-09-06T10:13:49.315Z,85.91
2018-09-06T10:14:52.140Z,86.58
2018-09-06T10:15:55.231Z,87.28
2018-09-06T10:16:58.044Z,87.52
2018-09-06T10:18:02.136Z,87.18
2018-09-06T10:19:05.333Z,88.09
2018-09-06T10:20:10.422Z,87.81
2018-09-06T10:21:13.228Z,87.81
2018-09-06T10:22:16.089Z,87.26
2018-09-06T10:23:18.979Z,87.84
2018-09-06T10:24:22.468Z,87.14
2018-09-06T10:25:26.474Z,87.19
2018-09-06T10:26:29.863Z,87.78
2018-09-06T10:27:33.305Z,87.11
2018-09-06T10:28:37.190Z,87.61
2018-09-06T10:29:41.284Z,87.35
2018-09-06T10:30:46.362Z,88.06
2018-09-06T10:33:30.672Z,87.78
2018-09-06T10:34:34.255Z,87.07
2018-09-06T10:35:37.773Z,87.61
2018-09-06T10:36:43.507Z,87.79
2018-09-06T10:37:47.372Z,87.44
2018-09-06T10:38:55.261Z,87.78
2018-09-06T10:39:58.132Z,87.61
2018-09-06T10:41:02.387Z,88.23
2018-09-06T10:42:05.869Z,87.89
2018-09-06T10:43:09.244Z,88.23
2018-09-06T10:44:14.359Z,87.52
2018-09-06T10:45:18.295Z,87.30
2018-09-06T10:46:22.007Z,88.16
2018-09-06T10:47:24.807Z,87.69
2018-09-06T10:48:27.635Z,87.71
2018-09-06T10:49:31.590Z,88.08
2018-09-06T10:50:34.391Z,89.12
2018-09-06T10:51:38.571Z,88.36
2018-09-06T10:52:41.650Z,88.27
2018-09-06T10:53:47.700Z,88.59
2018-09-06T10:54:51.567Z,89.31
2018-09-06T10:55:56.049Z,88.87
2018-09-06T10:56:58.830Z,89.34
2018-09-06T10:58:02.146Z,88.78
2018-09-06T10:59:05.459Z,87.65
2018-09-06T11:00:09.516Z,87.47
2018-09-06T11:01:17.360Z,87.88
2018-09-06T11:02:20.424Z,87.15
2018-09-06T11:03:23.369Z,86.88
2018-09-06T11:04:26.695Z,87.06
2018-09-06T11:05:29.671Z,87.85
2018-09-06T11:06:32.490Z,87.44
2018-09-06T11:07:37.234Z,87.30
2018-09-06T11:08:40.411Z,87.40
2018-09-06T11:09:44.519Z,86.90
2018-09-06T11:10:47.702Z,87.40
2018-09-06T11:11:50.524Z,87.20
2018-09-06T11:12:55.177Z,88.11
2018-09-06T11:13:58.796Z,88.31
2018-09-06T11:15:02.151Z,88.58
2018-09-06T11:16:05.339Z,87.72
2018-09-06T11:17:08.613Z,88.20
2018-09-06T11:18:11.564Z,87.88
2018-09-06T11:19:14.622Z,88.40
2018-09-06T11:20:17.495Z,87.54
2018-09-06T11:21:20.476Z,87.14
2018-09-06T11:22:23.802Z,87.22
2018-09-06T11:23:26.562Z,86.85
2018-09-06T11:24:29.412Z,87.95
2018-09-06T11:25:32.258Z,87.58
2018-09-06T11:26:39.310Z,87.11
2018-09-06T11:27:42.810Z,86.85
2018-09-06T11:28:46.867Z,86.46
2018-09-06T11:29:50.886Z,86.79
2018-09-06T11:30:53.818Z,87.04
2018-09-06T11:31:56.621Z,87.25
2018-09-06T11:32:59.459Z,87.88
2018-09-06T11:34:02.304Z,88.25
2018-09-06T11:35:06.590Z,88.00
2018-09-06T11:36:10.406Z,87.23
2018-09-06T11:37:13.233Z,87.15
2018-09-06T11:38:16.579Z,87.76
2018-09-06T11:39:19.473Z,88.38
2018-09-06T11:40:23.335Z,89.28
2018-09-06T11:41:26.209Z,89.08
2018-09-06T11:42:29.142Z,89.60
2018-09-06T11:43:31.942Z,90.19
2018-09-06T11:44:35.185Z,90.43
2018-09-06T11:45:38.689Z,90.21
2018-09-06T11:46:43.373Z,90.61
2018-09-06T11:47:47.190Z,90.38
2018-09-06T11:48:50.608Z,89.87
2018-09-06T11:49:53.426Z,90.17
2018-09-06T11:50:56.235Z,89.69
2018-09-06T11:51:59.196Z,89.43
2018-09-06T11:53:02.286Z,90.15
2018-09-06T11:54:05.122Z,89.62
2018-09-06T11:55:07.977Z,90.25
2018-09-06T11:56:10.860Z,89.49
2018-09-06T11:57:13.726Z,90.14
2018-09-06T11:58:16.567Z,89.94
2018-09-06T11:59:19.717Z,89.68
2018-09-06T12:00:23.152Z,89.08
2018-09-06T12:01:26.834Z,89.72
2018-09-06T12:02:29.658Z,88.75
2018-09-06T12:03:32.584Z,89.08
2018-09-06T12:04:35.451Z,88.53
2018-09-06T12:05:38.650Z,89.22
2018-09-06T12:06:41.956Z,88.40
2018-09-06T12:07:45.571Z,88.90
2018-09-06T12:08:48.370Z,89.18
2018-09-06T12:09:51.235Z,88.16
2018-09-06T12:10:54.122Z,88.63
2018-09-06T12:11:57.427Z,87.76
2018-09-06T12:13:00.276Z,88.18
2018-09-06T12:14:03.727Z,87.72
2018-09-06T12:15:06.523Z,88.16
2018-09-06T12:16:09.469Z,87.22
2018-09-06T12:17:12.282Z,87.48
2018-09-06T12:18:16.687Z,87.51
2018-09-06T12:19:19.562Z,86.47
2018-09-06T12:20:22.366Z,87.03
2018-09-06T12:21:25.404Z,85.64
2018-09-06T12:22:28.278Z,86.60
2018-09-06T12:23:33.107Z,85.76
2018-09-06T12:24:36.365Z,85.85
2018-09-06T12:25:39.243Z,86.54
2018-09-06T12:26:42.097Z,86.55
2018-09-06T12:27:45.526Z,85.68
2018-09-06T12:28:48.424Z,85.83
2018-09-06T12:29:51.284Z,85.65
2018-09-06T12:30:56.346Z,85.86
2018-09-06T12:31:59.441Z,85.35
2018-09-06T12:33:02.404Z,85.26
2018-09-06T12:34:06.292Z,85.08
2018-09-06T12:35:10.131Z,85.10
2018-09-06T12:36:14.272Z,83.95
2018-09-06T12:37:17.714Z,84.37
2018-09-06T12:38:20.542Z,84.61
2018-09-06T12:39:23.526Z,84.37
2018-09-06T12:40:26.368Z,84.43
2018-09-06T12:41:29.315Z,84.69
2018-09-06T12:42:32.330Z,83.97
2018-09-06T12:43:35.725Z,84.70
2018-09-06T12:44:39.759Z,83.33
2018-09-06T12:45:42.708Z,82.95
2018-09-06T12:46:45.574Z,82.92
2018-09-06T12:47:50.773Z,81.70
2018-09-06T12:48:54.612Z,82.45
2018-09-06T12:49:57.756Z,81.74
2018-09-06T12:51:01.860Z,80.95
2018-09-06T12:52:08.128Z,81.39
2018-09-06T12:53:11.005Z,80.16
2018-09-06T12:54:13.839Z,79.32
2018-09-06T12:55:16.787Z,79.42
2018-09-06T12:56:19.985Z,78.22
2018-09-06T12:57:22.914Z,77.84
2018-09-06T12:58:26.799Z,77.62
2018-09-06T12:59:31.494Z,76.48
2018-09-06T13:00:35.362Z,76.26
2018-09-06T13:01:42.093Z,75.21
2018-09-06T13:02:46.499Z,74.73
2018-09-06T13:03:50.285Z,74.58
2018-09-06T13:04:53.433Z,73.81
2018-09-06T13:05:56.243Z,74.17
2018-09-06T13:07:00.148Z,73.54
2018-09-06T13:08:03.113Z,73.84
2018-09-06T13:09:06.815Z,73.41
2018-09-06T13:11:18.908Z,71.11
2018-09-06T13:12:22.375Z,70.86
2018-09-06T13:13:26.029Z,69.00
2018-09-06T13:14:29.998Z,69.38
2018-09-06T13:15:35.627Z,69.90
2018-09-06T13:16:41.578Z,70.12
2018-09-06T13:17:46.290Z,69.22
2018-09-06T13:18:49.288Z,68.91
2018-09-06T13:19:52.615Z,70.69
2018-09-06T13:20:56.633Z,70.20
2018-09-06T13:21:59.919Z,70.26
2018-09-06T13:23:02.760Z,69.58
2018-09-06T13:24:06.513Z,68.89
2018-09-06T13:25:09.298Z,69.07
2018-09-06T13:26:12.261Z,69.00
2018-09-06T13:27:15.190Z,69.53
2018-09-06T13:28:18.525Z,71.03
2018-09-06T13:29:22.486Z,70.90
2018-09-06T13:30:26.450Z,72.40
2018-09-06T13:31:30.397Z,72.88
2018-09-06T13:32:33.400Z,72.78
2018-09-06T13:33:37.169Z,73.06
2018-09-06T13:34:40.672Z,72.30
2018-09-06T13:35:47.931Z,71.36
2018-09-06T13:36:53.803Z,71.91
2018-09-06T13:37:56.653Z,71.81
2018-09-06T13:38:59.783Z,71.07
2018-09-06T13:40:02.620Z,69.95
2018-09-06T13:41:05.990Z,69.84
2018-09-06T13:42:09.849Z,70.72
2018-09-06T13:43:12.651Z,71.52
2018-09-06T13:44:16.385Z,72.81
2018-09-06T13:45:19.408Z,71.19
2018-09-06T13:46:23.256Z,70.98
2018-09-06T13:47:28.986Z,72.50
2018-09-06T13:48:33.625Z,72.36